sensor_id;sensor_type;location;lat;lon;timestamp;P1;durP1;ratioP1;P2;durP2;ratioP2
17625;SDS011;8931;50.042;19.930;2022-07-06T00:00:05;29.27;;;26.80;;
17625;SDS011;8931;50.042;19.930;2022-07-06T00:01:08;28.80;;;26.53;;
17625;SDS011;8931;50.042;19.930;2022-07-06T00:02:12;28.60;;;26.40;;
17625;SDS011;8931;50.042;19.930;2022-07-06T00:03:15;27.93;;;25.63;;
17625;SDS011;8931;50.042;19.930;2022-07-06T00:04:16;28.77;;;26.47;;
17625;SDS011;8931;50.042;19.930;2022-07-06T00:05:20;28.07;;;25.77;;
17625;SDS011;8931;50.042;19.930;2022-07-06T00:06:21;27.90;;;25.67;;
17625;SDS011;8931;50.042;19.930;2022-07-06T00:07:23;28.03;;;25.73;;
17625;SDS011;8931;50.042;19.930;2022-07-06T00:08:24;27.63;;;25.33;;
17625;SDS011;8931;50.042;19.930;2022-07-06T00:09:27;28.47;;;26.03;;
17625;SDS011;8931;50.042;19.930;2022-07-06T00:10:29;28.03;;;25.83;;
17625;SDS011;8931;50.042;19.930;2022-07-06T00:11:31;28.90;;;26.50;;
17625;SDS011;8931;50.042;19.930;2022-07-06T00:12:31;28.43;;;26.00;;
17625;SDS011;8931;50.042;19.930;2022-07-06T00:13:33;28.83;;;26.53;;
17625;SDS011;8931;50.042;19.930;2022-07-06T00:14:34;27.93;;;25.63;;
17625;SDS011;8931;50.042;19.930;2022-07-06T00:15:35;27.90;;;25.70;;
17625;SDS011;8931;50.042;19.930;2022-07-06T00:16:39;27.43;;;25.23;;
17625;SDS011;8931;50.042;19.930;2022-07-06T00:17:43;27.90;;;25.43;;
17625;SDS011;8931;50.042;19.930;2022-07-06T00:18:45;26.93;;;24.83;;
17625;SDS011;8931;50.042;19.930;2022-07-06T00:19:47;27.30;;;25.20;;
17625;SDS011;8931;50.042;19.930;2022-07-06T00:20:49;28.07;;;25.77;;
17625;SDS011;8931;50.042;19.930;2022-07-06T00:21:49;27.97;;;25.60;;
17625;SDS011;8931;50.042;19.930;2022-07-06T00:22:51;26.13;;;24.13;;
17625;SDS011;8931;50.042;19.930;2022-07-06T00:23:52;26.47;;;24.33;;
17625;SDS011;8931;50.042;19.930;2022-07-06T00:24:54;27.73;;;25.23;;
17625;SDS011;8931;50.042;19.930;2022-07-06T00:25:56;26.90;;;24.80;;
17625;SDS011;8931;50.042;19.930;2022-07-06T00:26:59;27.23;;;24.93;;
17625;SDS011;8931;50.042;19.930;2022-07-06T00:28:02;26.77;;;24.43;;
17625;SDS011;8931;50.042;19.930;2022-07-06T00:29:02;26.00;;;23.77;;
17625;SDS011;8931;50.042;19.930;2022-07-06T00:30:05;26.20;;;24.10;;
17625;SDS011;8931;50.042;19.930;2022-07-06T00:31:09;26.87;;;24.67;;
17625;SDS011;8931;50.042;19.930;2022-07-06T00:32:10;26.47;;;24.10;;
17625;SDS011;8931;50.042;19.930;2022-07-06T00:33:11;27.77;;;25.53;;
17625;SDS011;8931;50.042;19.930;2022-07-06T00:34:13;27.97;;;25.37;;
17625;SDS011;8931;50.042;19.930;2022-07-06T00:35:16;26.53;;;24.43;;
17625;SDS011;8931;50.042;19.930;2022-07-06T00:36:18;25.63;;;23.73;;
17625;SDS011;8931;50.042;19.930;2022-07-06T00:37:21;27.50;;;25.33;;
17625;SDS011;8931;50.042;19.930;2022-07-06T00:38:23;27.10;;;25.00;;
17625;SDS011;8931;50.042;19.930;2022-07-06T00:39:24;27.47;;;25.37;;
17625;SDS011;8931;50.042;19.930;2022-07-06T00:40:29;26.83;;;24.77;;
17625;SDS011;8931;50.042;19.930;2022-07-06T00:41:32;27.23;;;25.13;;
17625;SDS011;8931;50.042;19.930;2022-07-06T00:42:38;27.90;;;25.60;;
17625;SDS011;8931;50.042;19.930;2022-07-06T00:43:46;26.80;;;24.80;;
17625;SDS011;8931;50.042;19.930;2022-07-06T00:44:51;26.77;;;24.77;;
17625;SDS011;8931;50.042;19.930;2022-07-06T00:45:53;26.53;;;24.43;;
17625;SDS011;8931;50.042;19.930;2022-07-06T00:46:54;27.37;;;25.17;;
17625;SDS011;8931;50.042;19.930;2022-07-06T00:47:57;27.80;;;25.60;;
17625;SDS011;8931;50.042;19.930;2022-07-06T00:48:58;28.33;;;26.03;;
17625;SDS011;8931;50.042;19.930;2022-07-06T00:50:00;26.53;;;24.50;;
17625;SDS011;8931;50.042;19.930;2022-07-06T00:51:18;26.63;;;24.53;;
17625;SDS011;8931;50.042;19.930;2022-07-06T00:52:21;26.47;;;24.30;;
17625;SDS011;8931;50.042;19.930;2022-07-06T00:53:22;26.87;;;24.73;;
17625;SDS011;8931;50.042;19.930;2022-07-06T00:54:24;26.87;;;24.67;;
17625;SDS011;8931;50.042;19.930;2022-07-06T00:55:29;27.10;;;24.80;;
17625;SDS011;8931;50.042;19.930;2022-07-06T00:56:33;26.23;;;24.23;;
17625;SDS011;8931;50.042;19.930;2022-07-06T00:57:34;25.73;;;23.63;;
17625;SDS011;8931;50.042;19.930;2022-07-06T00:58:36;25.73;;;23.73;;
17625;SDS011;8931;50.042;19.930;2022-07-06T00:59:36;26.47;;;24.47;;
17625;SDS011;8931;50.042;19.930;2022-07-06T01:00:38;27.40;;;25.20;;
17625;SDS011;8931;50.042;19.930;2022-07-06T01:01:45;26.57;;;24.57;;
17625;SDS011;8931;50.042;19.930;2022-07-06T01:02:48;26.10;;;24.17;;
17625;SDS011;8931;50.042;19.930;2022-07-06T01:03:49;26.50;;;24.40;;
17625;SDS011;8931;50.042;19.930;2022-07-06T01:04:51;26.30;;;24.20;;
17625;SDS011;8931;50.042;19.930;2022-07-06T01:05:52;26.33;;;24.33;;
17625;SDS011;8931;50.042;19.930;2022-07-06T01:06:54;26.90;;;24.90;;
17625;SDS011;8931;50.042;19.930;2022-07-06T01:07:57;27.47;;;25.37;;
17625;SDS011;8931;50.042;19.930;2022-07-06T01:09:01;28.20;;;26.00;;
17625;SDS011;8931;50.042;19.930;2022-07-06T01:10:02;28.70;;;26.20;;
17625;SDS011;8931;50.042;19.930;2022-07-06T01:11:04;28.43;;;26.17;;
17625;SDS011;8931;50.042;19.930;2022-07-06T01:12:07;28.70;;;26.50;;
17625;SDS011;8931;50.042;19.930;2022-07-06T01:13:12;28.17;;;25.77;;
17625;SDS011;8931;50.042;19.930;2022-07-06T01:14:13;27.63;;;25.33;;
17625;SDS011;8931;50.042;19.930;2022-07-06T01:15:16;26.80;;;24.60;;
17625;SDS011;8931;50.042;19.930;2022-07-06T01:16:18;27.77;;;25.37;;
17625;SDS011;8931;50.042;19.930;2022-07-06T01:17:21;25.97;;;23.97;;
17625;SDS011;8931;50.042;19.930;2022-07-06T01:18:23;26.13;;;24.10;;
17625;SDS011;8931;50.042;19.930;2022-07-06T01:19:27;25.77;;;23.87;;
17625;SDS011;8931;50.042;19.930;2022-07-06T01:20:29;25.87;;;23.87;;
17625;SDS011;8931;50.042;19.930;2022-07-06T01:21:31;27.37;;;25.23;;
17625;SDS011;8931;50.042;19.930;2022-07-06T01:22:31;27.10;;;25.10;;
17625;SDS011;8931;50.042;19.930;2022-07-06T01:23:38;26.47;;;24.47;;
17625;SDS011;8931;50.042;19.930;2022-07-06T01:24:39;26.30;;;24.27;;
17625;SDS011;8931;50.042;19.930;2022-07-06T01:25:40;25.80;;;23.80;;
17625;SDS011;8931;50.042;19.930;2022-07-06T01:26:41;25.97;;;24.03;;
17625;SDS011;8931;50.042;19.930;2022-07-06T01:27:45;26.10;;;24.10;;
17625;SDS011;8931;50.042;19.930;2022-07-06T01:28:46;29.70;;;24.73;;
17625;SDS011;8931;50.042;19.930;2022-07-06T01:29:49;26.67;;;24.43;;
17625;SDS011;8931;50.042;19.930;2022-07-06T01:30:49;26.80;;;24.60;;
17625;SDS011;8931;50.042;19.930;2022-07-06T01:31:52;26.47;;;24.37;;
17625;SDS011;8931;50.042;19.930;2022-07-06T01:32:53;26.27;;;24.27;;
17625;SDS011;8931;50.042;19.930;2022-07-06T01:33:56;26.13;;;24.13;;
17625;SDS011;8931;50.042;19.930;2022-07-06T01:34:57;25.53;;;23.60;;
17625;SDS011;8931;50.042;19.930;2022-07-06T01:36:00;25.27;;;23.27;;
17625;SDS011;8931;50.042;19.930;2022-07-06T01:37:02;25.50;;;23.53;;
17625;SDS011;8931;50.042;19.930;2022-07-06T01:38:05;25.67;;;23.67;;
17625;SDS011;8931;50.042;19.930;2022-07-06T01:39:07;25.87;;;23.87;;
17625;SDS011;8931;50.042;19.930;2022-07-06T01:40:11;24.43;;;22.60;;
17625;SDS011;8931;50.042;19.930;2022-07-06T01:41:13;25.33;;;23.33;;
17625;SDS011;8931;50.042;19.930;2022-07-06T01:42:15;26.07;;;23.80;;
17625;SDS011;8931;50.042;19.930;2022-07-06T01:43:18;25.40;;;23.30;;
17625;SDS011;8931;50.042;19.930;2022-07-06T01:44:21;26.13;;;24.00;;
17625;SDS011;8931;50.042;19.930;2022-07-06T01:45:22;25.20;;;23.20;;
17625;SDS011;8931;50.042;19.930;2022-07-06T01:46:23;26.73;;;24.27;;
17625;SDS011;8931;50.042;19.930;2022-07-06T01:47:24;28.53;;;24.13;;
17625;SDS011;8931;50.042;19.930;2022-07-06T01:48:30;26.83;;;24.73;;
17625;SDS011;8931;50.042;19.930;2022-07-06T01:49:31;26.97;;;24.87;;
17625;SDS011;8931;50.042;19.930;2022-07-06T01:50:35;27.17;;;24.87;;
17625;SDS011;8931;50.042;19.930;2022-07-06T01:51:39;27.13;;;24.83;;
17625;SDS011;8931;50.042;19.930;2022-07-06T01:52:41;27.30;;;24.90;;
17625;SDS011;8931;50.042;19.930;2022-07-06T01:53:41;26.23;;;24.20;;
17625;SDS011;8931;50.042;19.930;2022-07-06T01:54:43;27.57;;;25.37;;
17625;SDS011;8931;50.042;19.930;2022-07-06T01:55:46;27.97;;;25.77;;
17625;SDS011;8931;50.042;19.930;2022-07-06T01:56:48;27.63;;;25.40;;
17625;SDS011;8931;50.042;19.930;2022-07-06T01:57:48;28.07;;;25.57;;
17625;SDS011;8931;50.042;19.930;2022-07-06T01:58:50;27.57;;;25.30;;
17625;SDS011;8931;50.042;19.930;2022-07-06T01:59:51;27.70;;;25.50;;
17625;SDS011;8931;50.042;19.930;2022-07-06T02:00:52;26.83;;;24.63;;
17625;SDS011;8931;50.042;19.930;2022-07-06T02:01:53;27.53;;;25.30;;
17625;SDS011;8931;50.042;19.930;2022-07-06T02:02:56;27.67;;;25.27;;
17625;SDS011;8931;50.042;19.930;2022-07-06T02:03:56;27.77;;;25.37;;
17625;SDS011;8931;50.042;19.930;2022-07-06T02:04:59;28.03;;;25.57;;
17625;SDS011;8931;50.042;19.930;2022-07-06T02:06:01;27.43;;;25.27;;
17625;SDS011;8931;50.042;19.930;2022-07-06T02:07:04;28.07;;;25.47;;
17625;SDS011;8931;50.042;19.930;2022-07-06T02:08:05;28.33;;;25.67;;
17625;SDS011;8931;50.042;19.930;2022-07-06T02:09:08;29.43;;;26.33;;
17625;SDS011;8931;50.042;19.930;2022-07-06T02:10:11;28.43;;;26.10;;
17625;SDS011;8931;50.042;19.930;2022-07-06T02:11:13;28.77;;;26.03;;
17625;SDS011;8931;50.042;19.930;2022-07-06T02:12:14;28.10;;;25.90;;
17625;SDS011;8931;50.042;19.930;2022-07-06T02:13:18;27.93;;;25.53;;
17625;SDS011;8931;50.042;19.930;2022-07-06T02:14:18;27.70;;;25.20;;
17625;SDS011;8931;50.042;19.930;2022-07-06T02:15:22;26.83;;;24.57;;
17625;SDS011;8931;50.042;19.930;2022-07-06T02:16:24;27.10;;;24.83;;
17625;SDS011;8931;50.042;19.930;2022-07-06T02:17:25;27.37;;;24.77;;
17625;SDS011;8931;50.042;19.930;2022-07-06T02:18:27;28.20;;;25.70;;
17625;SDS011;8931;50.042;19.930;2022-07-06T02:19:31;27.27;;;24.63;;
17625;SDS011;8931;50.042;19.930;2022-07-06T02:20:35;27.57;;;25.17;;
17625;SDS011;8931;50.042;19.930;2022-07-06T02:21:36;27.40;;;24.97;;
17625;SDS011;8931;50.042;19.930;2022-07-06T02:22:39;27.73;;;25.13;;
17625;SDS011;8931;50.042;19.930;2022-07-06T02:23:40;27.30;;;25.10;;
17625;SDS011;8931;50.042;19.930;2022-07-06T02:24:42;28.07;;;25.73;;
17625;SDS011;8931;50.042;19.930;2022-07-06T02:25:43;27.97;;;25.67;;
17625;SDS011;8931;50.042;19.930;2022-07-06T02:26:47;27.87;;;25.33;;
17625;SDS011;8931;50.042;19.930;2022-07-06T02:27:48;26.80;;;24.50;;
17625;SDS011;8931;50.042;19.930;2022-07-06T02:28:49;27.33;;;24.93;;
17625;SDS011;8931;50.042;19.930;2022-07-06T02:29:50;27.47;;;24.93;;
17625;SDS011;8931;50.042;19.930;2022-07-06T02:30:54;26.90;;;24.80;;
17625;SDS011;8931;50.042;19.930;2022-07-06T02:31:55;26.93;;;24.67;;
17625;SDS011;8931;50.042;19.930;2022-07-06T02:32:57;26.70;;;24.40;;
17625;SDS011;8931;50.042;19.930;2022-07-06T02:33:59;26.67;;;24.43;;
17625;SDS011;8931;50.042;19.930;2022-07-06T02:35:02;27.27;;;24.97;;
17625;SDS011;8931;50.042;19.930;2022-07-06T02:36:03;27.00;;;24.60;;
17625;SDS011;8931;50.042;19.930;2022-07-06T02:37:06;28.43;;;25.60;;
17625;SDS011;8931;50.042;19.930;2022-07-06T02:38:09;26.67;;;24.47;;
17625;SDS011;8931;50.042;19.930;2022-07-06T02:39:11;26.83;;;24.53;;
17625;SDS011;8931;50.042;19.930;2022-07-06T02:40:14;26.63;;;24.53;;
17625;SDS011;8931;50.042;19.930;2022-07-06T02:41:17;26.53;;;24.37;;
17625;SDS011;8931;50.042;19.930;2022-07-06T02:42:18;27.03;;;24.93;;
17625;SDS011;8931;50.042;19.930;2022-07-06T02:43:20;26.40;;;24.30;;
17625;SDS011;8931;50.042;19.930;2022-07-06T02:44:23;27.63;;;24.90;;
17625;SDS011;8931;50.042;19.930;2022-07-06T02:45:27;27.77;;;25.37;;
17625;SDS011;8931;50.042;19.930;2022-07-06T02:46:28;28.03;;;25.10;;
17625;SDS011;8931;50.042;19.930;2022-07-06T02:47:30;28.43;;;25.83;;
17625;SDS011;8931;50.042;19.930;2022-07-06T02:48:31;28.07;;;25.50;;
17625;SDS011;8931;50.042;19.930;2022-07-06T02:49:32;27.70;;;25.40;;
17625;SDS011;8931;50.042;19.930;2022-07-06T02:50:33;26.87;;;24.37;;
17625;SDS011;8931;50.042;19.930;2022-07-06T02:51:39;27.63;;;25.20;;
17625;SDS011;8931;50.042;19.930;2022-07-06T02:52:39;27.07;;;24.77;;
17625;SDS011;8931;50.042;19.930;2022-07-06T02:53:43;27.07;;;24.60;;
17625;SDS011;8931;50.042;19.930;2022-07-06T02:54:44;28.07;;;25.30;;
17625;SDS011;8931;50.042;19.930;2022-07-06T02:55:46;26.53;;;24.27;;
17625;SDS011;8931;50.042;19.930;2022-07-06T02:56:47;27.63;;;25.13;;
17625;SDS011;8931;50.042;19.930;2022-07-06T02:57:52;27.20;;;25.00;;
17625;SDS011;8931;50.042;19.930;2022-07-06T02:58:54;26.40;;;24.00;;
17625;SDS011;8931;50.042;19.930;2022-07-06T02:59:57;26.70;;;24.50;;
17625;SDS011;8931;50.042;19.930;2022-07-06T03:00:57;26.40;;;24.30;;
17625;SDS011;8931;50.042;19.930;2022-07-06T03:01:59;26.87;;;24.40;;
17625;SDS011;8931;50.042;19.930;2022-07-06T03:03:01;26.43;;;24.23;;
17625;SDS011;8931;50.042;19.930;2022-07-06T03:04:03;27.07;;;24.73;;
17625;SDS011;8931;50.042;19.930;2022-07-06T03:05:05;28.43;;;25.67;;
17625;SDS011;8931;50.042;19.930;2022-07-06T03:06:10;27.50;;;24.97;;
17625;SDS011;8931;50.042;19.930;2022-07-06T03:07:11;26.93;;;24.53;;
17625;SDS011;8931;50.042;19.930;2022-07-06T03:08:13;27.47;;;25.00;;
17625;SDS011;8931;50.042;19.930;2022-07-06T03:09:17;26.80;;;24.60;;
17625;SDS011;8931;50.042;19.930;2022-07-06T03:10:19;27.23;;;25.03;;
17625;SDS011;8931;50.042;19.930;2022-07-06T03:11:19;27.47;;;25.27;;
17625;SDS011;8931;50.042;19.930;2022-07-06T03:12:22;26.40;;;23.90;;
17625;SDS011;8931;50.042;19.930;2022-07-06T03:13:24;27.23;;;24.87;;
17625;SDS011;8931;50.042;19.930;2022-07-06T03:14:25;26.40;;;24.20;;
17625;SDS011;8931;50.042;19.930;2022-07-06T03:15:27;26.20;;;24.10;;
17625;SDS011;8931;50.042;19.930;2022-07-06T03:16:29;26.97;;;24.67;;
17625;SDS011;8931;50.042;19.930;2022-07-06T03:17:32;26.53;;;24.43;;
17625;SDS011;8931;50.042;19.930;2022-07-06T03:18:34;26.30;;;24.20;;
17625;SDS011;8931;50.042;19.930;2022-07-06T03:19:36;26.57;;;24.20;;
17625;SDS011;8931;50.042;19.930;2022-07-06T03:20:38;26.63;;;24.20;;
17625;SDS011;8931;50.042;19.930;2022-07-06T03:21:41;26.60;;;24.30;;
17625;SDS011;8931;50.042;19.930;2022-07-06T03:22:43;27.67;;;25.00;;
17625;SDS011;8931;50.042;19.930;2022-07-06T03:23:46;27.20;;;24.80;;
17625;SDS011;8931;50.042;19.930;2022-07-06T03:24:51;26.70;;;24.33;;
17625;SDS011;8931;50.042;19.930;2022-07-06T03:25:52;26.53;;;24.13;;
17625;SDS011;8931;50.042;19.930;2022-07-06T03:26:54;26.77;;;24.07;;
17625;SDS011;8931;50.042;19.930;2022-07-06T03:27:57;26.17;;;23.90;;
17625;SDS011;8931;50.042;19.930;2022-07-06T03:28:59;26.37;;;24.17;;
17625;SDS011;8931;50.042;19.930;2022-07-06T03:30:00;26.20;;;24.10;;
17625;SDS011;8931;50.042;19.930;2022-07-06T03:31:02;27.03;;;24.53;;
17625;SDS011;8931;50.042;19.930;2022-07-06T03:32:04;26.83;;;24.53;;
17625;SDS011;8931;50.042;19.930;2022-07-06T03:33:05;26.93;;;24.80;;
17625;SDS011;8931;50.042;19.930;2022-07-06T03:34:08;27.07;;;24.83;;
17625;SDS011;8931;50.042;19.930;2022-07-06T03:35:09;27.60;;;25.30;;
17625;SDS011;8931;50.042;19.930;2022-07-06T03:36:11;27.37;;;25.07;;
17625;SDS011;8931;50.042;19.930;2022-07-06T03:37:12;26.90;;;24.70;;
17625;SDS011;8931;50.042;19.930;2022-07-06T03:38:15;26.50;;;24.30;;
17625;SDS011;8931;50.042;19.930;2022-07-06T03:39:18;26.90;;;24.50;;
17625;SDS011;8931;50.042;19.930;2022-07-06T03:40:22;25.70;;;23.50;;
17625;SDS011;8931;50.042;19.930;2022-07-06T03:41:26;26.97;;;24.87;;
17625;SDS011;8931;50.042;19.930;2022-07-06T03:42:27;25.93;;;23.70;;
17625;SDS011;8931;50.042;19.930;2022-07-06T03:43:30;27.10;;;24.83;;
17625;SDS011;8931;50.042;19.930;2022-07-06T03:44:31;28.27;;;25.77;;
17625;SDS011;8931;50.042;19.930;2022-07-06T03:45:33;27.43;;;25.03;;
17625;SDS011;8931;50.042;19.930;2022-07-06T03:46:35;27.40;;;25.00;;
17625;SDS011;8931;50.042;19.930;2022-07-06T03:47:40;28.57;;;26.03;;
17625;SDS011;8931;50.042;19.930;2022-07-06T03:48:44;27.93;;;25.63;;
17625;SDS011;8931;50.042;19.930;2022-07-06T03:49:45;27.40;;;25.13;;
17625;SDS011;8931;50.042;19.930;2022-07-06T03:50:47;28.47;;;26.00;;
17625;SDS011;8931;50.042;19.930;2022-07-06T03:51:48;29.37;;;26.70;;
17625;SDS011;8931;50.042;19.930;2022-07-06T03:52:53;31.83;;;28.67;;
17625;SDS011;8931;50.042;19.930;2022-07-06T03:53:54;29.03;;;26.43;;
17625;SDS011;8931;50.042;19.930;2022-07-06T03:54:55;28.10;;;25.60;;
17625;SDS011;8931;50.042;19.930;2022-07-06T03:56:02;29.60;;;26.83;;
17625;SDS011;8931;50.042;19.930;2022-07-06T03:57:22;28.73;;;26.17;;
17625;SDS011;8931;50.042;19.930;2022-07-06T03:58:26;28.50;;;26.00;;
17625;SDS011;8931;50.042;19.930;2022-07-06T03:59:28;28.27;;;25.97;;
17625;SDS011;8931;50.042;19.930;2022-07-06T04:00:32;27.83;;;25.60;;
17625;SDS011;8931;50.042;19.930;2022-07-06T04:01:38;27.47;;;25.27;;
17625;SDS011;8931;50.042;19.930;2022-07-06T04:02:44;27.67;;;25.33;;
17625;SDS011;8931;50.042;19.930;2022-07-06T04:03:51;27.50;;;25.20;;
17625;SDS011;8931;50.042;19.930;2022-07-06T04:04:53;28.53;;;26.07;;
17625;SDS011;8931;50.042;19.930;2022-07-06T04:05:55;28.13;;;25.77;;
17625;SDS011;8931;50.042;19.930;2022-07-06T04:07:01;26.80;;;24.60;;
17625;SDS011;8931;50.042;19.930;2022-07-06T04:08:04;26.37;;;24.27;;
17625;SDS011;8931;50.042;19.930;2022-07-06T04:09:13;27.50;;;24.80;;
17625;SDS011;8931;50.042;19.930;2022-07-06T04:10:16;28.23;;;25.93;;
17625;SDS011;8931;50.042;19.930;2022-07-06T04:11:19;28.20;;;25.70;;
17625;SDS011;8931;50.042;19.930;2022-07-06T04:12:20;28.27;;;25.93;;
17625;SDS011;8931;50.042;19.930;2022-07-06T04:13:24;27.30;;;24.80;;
17625;SDS011;8931;50.042;19.930;2022-07-06T04:14:26;26.87;;;24.67;;
17625;SDS011;8931;50.042;19.930;2022-07-06T04:15:27;26.20;;;23.83;;
17625;SDS011;8931;50.042;19.930;2022-07-06T04:16:30;27.27;;;24.87;;
17625;SDS011;8931;50.042;19.930;2022-07-06T04:17:34;26.87;;;24.63;;
17625;SDS011;8931;50.042;19.930;2022-07-06T04:18:56;26.00;;;23.73;;
17625;SDS011;8931;50.042;19.930;2022-07-06T04:19:58;25.93;;;23.93;;
17625;SDS011;8931;50.042;19.930;2022-07-06T04:20:59;25.53;;;23.27;;
17625;SDS011;8931;50.042;19.930;2022-07-06T04:22:03;25.53;;;23.33;;
17625;SDS011;8931;50.042;19.930;2022-07-06T04:23:05;26.63;;;24.20;;
17625;SDS011;8931;50.042;19.930;2022-07-06T04:24:08;25.30;;;23.30;;
17625;SDS011;8931;50.042;19.930;2022-07-06T04:25:10;26.03;;;23.77;;
17625;SDS011;8931;50.042;19.930;2022-07-06T04:26:11;26.23;;;23.97;;
17625;SDS011;8931;50.042;19.930;2022-07-06T04:27:21;26.43;;;24.03;;
17625;SDS011;8931;50.042;19.930;2022-07-06T04:28:22;26.03;;;23.90;;
17625;SDS011;8931;50.042;19.930;2022-07-06T04:29:23;26.73;;;24.30;;
17625;SDS011;8931;50.042;19.930;2022-07-06T04:30:25;26.80;;;24.50;;
17625;SDS011;8931;50.042;19.930;2022-07-06T04:31:29;26.33;;;24.20;;
17625;SDS011;8931;50.042;19.930;2022-07-06T04:32:30;26.30;;;23.90;;
17625;SDS011;8931;50.042;19.930;2022-07-06T04:33:31;26.63;;;24.47;;
17625;SDS011;8931;50.042;19.930;2022-07-06T04:34:34;27.07;;;24.67;;
17625;SDS011;8931;50.042;19.930;2022-07-06T04:35:35;26.37;;;24.20;;
17625;SDS011;8931;50.042;19.930;2022-07-06T04:36:37;25.87;;;23.87;;
17625;SDS011;8931;50.042;19.930;2022-07-06T04:37:40;26.40;;;24.30;;
17625;SDS011;8931;50.042;19.930;2022-07-06T04:38:42;27.10;;;24.90;;
17625;SDS011;8931;50.042;19.930;2022-07-06T04:39:44;25.40;;;23.50;;
17625;SDS011;8931;50.042;19.930;2022-07-06T04:40:45;24.70;;;22.70;;
17625;SDS011;8931;50.042;19.930;2022-07-06T04:41:49;25.27;;;23.27;;
17625;SDS011;8931;50.042;19.930;2022-07-06T04:42:52;25.00;;;22.77;;
17625;SDS011;8931;50.042;19.930;2022-07-06T04:43:55;25.30;;;23.10;;
17625;SDS011;8931;50.042;19.930;2022-07-06T04:44:57;25.03;;;22.93;;
17625;SDS011;8931;50.042;19.930;2022-07-06T04:45:59;25.83;;;23.83;;
17625;SDS011;8931;50.042;19.930;2022-07-06T04:47:01;26.23;;;23.90;;
17625;SDS011;8931;50.042;19.930;2022-07-06T04:48:03;25.63;;;23.33;;
17625;SDS011;8931;50.042;19.930;2022-07-06T04:49:05;25.83;;;23.63;;
17625;SDS011;8931;50.042;19.930;2022-07-06T04:50:10;26.00;;;23.50;;
17625;SDS011;8931;50.042;19.930;2022-07-06T04:51:14;25.60;;;23.30;;
17625;SDS011;8931;50.042;19.930;2022-07-06T04:52:17;25.00;;;22.83;;
17625;SDS011;8931;50.042;19.930;2022-07-06T04:53:18;25.47;;;23.20;;
17625;SDS011;8931;50.042;19.930;2022-07-06T04:54:20;25.20;;;23.10;;
17625;SDS011;8931;50.042;19.930;2022-07-06T04:55:21;25.27;;;22.90;;
17625;SDS011;8931;50.042;19.930;2022-07-06T04:56:23;27.07;;;24.77;;
17625;SDS011;8931;50.042;19.930;2022-07-06T04:57:23;25.43;;;23.13;;
17625;SDS011;8931;50.042;19.930;2022-07-06T04:58:30;24.90;;;22.30;;
17625;SDS011;8931;50.042;19.930;2022-07-06T04:59:31;24.33;;;22.13;;
17625;SDS011;8931;50.042;19.930;2022-07-06T05:00:33;25.27;;;23.17;;
17625;SDS011;8931;50.042;19.930;2022-07-06T05:01:35;25.47;;;23.37;;
17625;SDS011;8931;50.042;19.930;2022-07-06T05:02:35;25.87;;;23.47;;
17625;SDS011;8931;50.042;19.930;2022-07-06T05:03:38;26.00;;;23.70;;
17625;SDS011;8931;50.042;19.930;2022-07-06T05:04:43;25.33;;;23.10;;
17625;SDS011;8931;50.042;19.930;2022-07-06T05:05:44;25.43;;;23.13;;
17625;SDS011;8931;50.042;19.930;2022-07-06T05:06:47;25.37;;;23.27;;
17625;SDS011;8931;50.042;19.930;2022-07-06T05:07:50;25.47;;;23.27;;
17625;SDS011;8931;50.042;19.930;2022-07-06T05:08:51;24.87;;;22.63;;
17625;SDS011;8931;50.042;19.930;2022-07-06T05:09:55;25.70;;;23.43;;
17625;SDS011;8931;50.042;19.930;2022-07-06T05:10:56;25.33;;;22.93;;
17625;SDS011;8931;50.042;19.930;2022-07-06T05:12:01;24.83;;;22.83;;
17625;SDS011;8931;50.042;19.930;2022-07-06T05:13:03;25.30;;;23.07;;
17625;SDS011;8931;50.042;19.930;2022-07-06T05:14:06;25.83;;;23.63;;
17625;SDS011;8931;50.042;19.930;2022-07-06T05:15:07;25.03;;;22.73;;
17625;SDS011;8931;50.042;19.930;2022-07-06T05:16:09;25.67;;;23.47;;
17625;SDS011;8931;50.042;19.930;2022-07-06T05:17:10;26.10;;;23.60;;
17625;SDS011;8931;50.042;19.930;2022-07-06T05:18:12;24.63;;;22.73;;
17625;SDS011;8931;50.042;19.930;2022-07-06T05:19:16;25.07;;;23.07;;
17625;SDS011;8931;50.042;19.930;2022-07-06T05:20:18;25.37;;;23.17;;
17625;SDS011;8931;50.042;19.930;2022-07-06T05:21:21;25.60;;;23.60;;
17625;SDS011;8931;50.042;19.930;2022-07-06T05:22:23;23.90;;;21.90;;
17625;SDS011;8931;50.042;19.930;2022-07-06T05:23:25;24.83;;;22.73;;
17625;SDS011;8931;50.042;19.930;2022-07-06T05:24:29;24.70;;;22.63;;
17625;SDS011;8931;50.042;19.930;2022-07-06T05:25:30;24.23;;;22.27;;
17625;SDS011;8931;50.042;19.930;2022-07-06T05:26:33;24.70;;;22.57;;
17625;SDS011;8931;50.042;19.930;2022-07-06T05:27:37;25.17;;;23.00;;
17625;SDS011;8931;50.042;19.930;2022-07-06T05:28:39;23.67;;;21.73;;
17625;SDS011;8931;50.042;19.930;2022-07-06T05:29:44;24.00;;;22.07;;
17625;SDS011;8931;50.042;19.930;2022-07-06T05:30:46;23.50;;;21.80;;
17625;SDS011;8931;50.042;19.930;2022-07-06T05:31:49;23.67;;;21.87;;
17625;SDS011;8931;50.042;19.930;2022-07-06T05:32:51;24.07;;;22.27;;
17625;SDS011;8931;50.042;19.930;2022-07-06T05:33:55;23.43;;;21.43;;
17625;SDS011;8931;50.042;19.930;2022-07-06T05:34:56;23.50;;;21.50;;
17625;SDS011;8931;50.042;19.930;2022-07-06T05:35:57;24.07;;;22.17;;
17625;SDS011;8931;50.042;19.930;2022-07-06T05:37:02;24.07;;;22.07;;
17625;SDS011;8931;50.042;19.930;2022-07-06T05:38:06;23.67;;;21.77;;
17625;SDS011;8931;50.042;19.930;2022-07-06T05:39:07;23.23;;;21.33;;
17625;SDS011;8931;50.042;19.930;2022-07-06T05:40:09;24.13;;;22.13;;
17625;SDS011;8931;50.042;19.930;2022-07-06T05:41:12;23.50;;;21.60;;
17625;SDS011;8931;50.042;19.930;2022-07-06T05:42:14;23.03;;;21.23;;
17625;SDS011;8931;50.042;19.930;2022-07-06T05:43:15;24.47;;;22.00;;
17625;SDS011;8931;50.042;19.930;2022-07-06T05:44:18;24.47;;;22.47;;
17625;SDS011;8931;50.042;19.930;2022-07-06T05:45:21;24.43;;;22.10;;
17625;SDS011;8931;50.042;19.930;2022-07-06T05:46:23;23.47;;;21.67;;
17625;SDS011;8931;50.042;19.930;2022-07-06T05:47:24;23.77;;;21.70;;
17625;SDS011;8931;50.042;19.930;2022-07-06T05:48:44;23.73;;;21.27;;
17625;SDS011;8931;50.042;19.930;2022-07-06T05:50:03;23.70;;;21.90;;
17625;SDS011;8931;50.042;19.930;2022-07-06T05:51:20;23.33;;;21.43;;
17625;SDS011;8931;50.042;19.930;2022-07-06T05:52:21;23.93;;;22.03;;
17625;SDS011;8931;50.042;19.930;2022-07-06T05:53:25;23.43;;;21.60;;
17625;SDS011;8931;50.042;19.930;2022-07-06T05:54:30;22.93;;;21.10;;
17625;SDS011;8931;50.042;19.930;2022-07-06T05:55:31;22.47;;;20.77;;
17625;SDS011;8931;50.042;19.930;2022-07-06T05:56:35;23.37;;;21.50;;
17625;SDS011;8931;50.042;19.930;2022-07-06T05:57:36;23.50;;;21.70;;
17625;SDS011;8931;50.042;19.930;2022-07-06T05:58:38;23.67;;;21.63;;
17625;SDS011;8931;50.042;19.930;2022-07-06T05:59:41;22.47;;;20.70;;
17625;SDS011;8931;50.042;19.930;2022-07-06T06:00:44;23.33;;;21.00;;
17625;SDS011;8931;50.042;19.930;2022-07-06T06:01:52;22.90;;;21.13;;
17625;SDS011;8931;50.042;19.930;2022-07-06T06:02:56;22.97;;;21.00;;
17625;SDS011;8931;50.042;19.930;2022-07-06T06:03:59;22.97;;;21.27;;
17625;SDS011;8931;50.042;19.930;2022-07-06T06:05:01;22.33;;;20.53;;
17625;SDS011;8931;50.042;19.930;2022-07-06T06:06:02;22.77;;;20.70;;